Cedar Park's Hourly Summary for Sunday, April 16, 2017
Hour Temp
(f)
RH
(%)
Solar Rad.
(MJ/m2)
Rainfall
(in)
Wind
(mph)
4/16/2017 12:00 AM 70 82 0 0 7.69
4/16/2017 1:00 AM 69 91 0 0 6.96
4/16/2017 2:00 AM 69 93 0 0 6.47
4/16/2017 3:00 AM 68 95 0 0 6.33
4/16/2017 4:00 AM 68 99 0 0 4.32
4/16/2017 5:00 AM 67 99 0 0 3.96
4/16/2017 6:00 AM 67 100 0 0 5.15
4/16/2017 7:00 AM 67 100 0 0 5.46
4/16/2017 8:00 AM 67 100 0.11 0 4.54
4/16/2017 9:00 AM 68 97 0.67 0 6.41
4/16/2017 10:00 AM 70 90 0.84 0 6.93
4/16/2017 11:00 AM 71 84 0.88 0 6.8
4/16/2017 12:00 PM 72 76 0.9 0 6.85
4/16/2017 1:00 PM 75 67 1.59 0 6.14
4/16/2017 2:00 PM 76 64 1.47 0 5.51
4/16/2017 3:00 PM 76 63 1.4 0 5.57
4/16/2017 4:00 PM 77 61 1.69 0 6.77
4/16/2017 5:00 PM 78 59 1.42 0 7.3
4/16/2017 6:00 PM 79 57 1.17 0 5.61
4/16/2017 7:00 PM 78 58 0.32 0 4.74
4/16/2017 8:00 PM 77 61 0.17 0 5.32
4/16/2017 9:00 PM 75 69 0 0 7.07
4/16/2017 10:00 PM 73 76 0 0 6.1
4/16/2017 11:00 PM 71 80 0 0 5.05
Data Summary 72 80 12.63 0.00 5.96